This is the latest recevied weather packets stored in our database for station/object YO6FNF-10. If no packets are shown the sender has not sent any weather packets the latest 10 day(s).
| Time | Temp. | Humidity | Pressure | Rain* | Wind** | Luminosity | Snow |
|---|---|---|---|---|---|---|---|
| 1778094145 | 17.78° C | 49% | 1015.8 hPa | - | - | - | - |
| 1778093245 | 17.78° C | 49% | 1015.7 hPa | - | - | - | - |
| 1778092345 | 18.33° C | 47% | 1015.4 hPa | - | - | - | - |
| 1778091445 | 17.78° C | 49% | 1015.4 hPa | - | - | - | - |
| 1778090545 | 18.33° C | 48% | 1015.1 hPa | - | - | - | - |
| 1778089644 | 18.33° C | 47% | 1014.9 hPa | - | - | - | - |
| 1778088744 | 18.33° C | 44% | 1014.8 hPa | - | - | - | - |
| 1778087844 | 18.89° C | 40% | 1014.7 hPa | - | - | - | - |
| 1778086944 | 19.44° C | 39% | 1014.7 hPa | - | - | - | - |
| 1778086044 | 19.44° C | 38% | 1014.6 hPa | - | - | - | - |
| 1778085144 | 20° C | 37% | 1014.4 hPa | - | - | - | - |
| 1778084243 | 20.56° C | 37% | 1014.4 hPa | - | - | - | - |
| 1778083343 | 21.11° C | 36% | 1014.2 hPa | - | - | - | - |
| 1778082443 | 21.11° C | 36% | 1014.3 hPa | - | - | - | - |
| 1778081543 | 21.67° C | 33% | 1014.5 hPa | - | - | - | - |
| 1778080643 | 22.22° C | 33% | 1014.6 hPa | - | - | - | - |
| 1778079742 | 23.89° C | 29% | 1014.6 hPa | - | - | - | - |
| 1778078842 | 27.22° C | 27% | 1014.6 hPa | - | - | - | - |
| 1778077942 | 26.67° C | 28% | 1014.6 hPa | - | - | - | - |
| 1778077042 | 23.89° C | 32% | 1014.5 hPa | - | - | - | - |
| 1778076142 | 23.89° C | 32% | 1014.4 hPa | - | - | - | - |
| 1778075242 | 25° C | 31% | 1014.3 hPa | - | - | - | - |
| 1778074341 | 28.33° C | 17% | 1014.2 hPa | - | - | - | - |
| 1778073441 | 28.89° C | 15% | 1014.1 hPa | - | - | - | - |
| 1778072541 | 28.89° C | 13% | 1014.3 hPa | - | - | - | - |
* Rain since midnight (hover to see other rain measurements)
** Current wind speed in m/s (hover to see current wind gust speed)